Time;durP1;ratioP1;P1;durP2;ratioP2;P2;SDS_P1;SDS_P2;PMS_P1;PMS_P2;Temp;Humidity;BMP_temperature;BMP_pressure;BME280_temperature;BME280_humidity;BME280_pressure;Samples;Min_cycle;Max_cycle;Signal;HPM_P1;HPM_P2
2023/10/17 00:02:26;;;;;;;5.87;3.23;;;;;;;5.39;100.00;102309.91;7393193;19;20399;-39
2023/10/17 00:04:55;;;;;;;7.30;3.73;;;;;;;5.46;100.00;102302.00;7371955;19;20774;-39
2023/10/17 00:07:27;;;;;;;8.13;4.03;;;;;;;5.49;100.00;102297.13;7391870;19;20823;-39
2023/10/17 00:09:58;;;;;;;8.07;3.70;;;;;;;5.43;100.00;102288.91;7371084;19;20542;-39
2023/10/17 00:12:39;;;;;;;8.53;4.37;;;;;;;5.39;100.00;102276.63;7390497;19;20419;-36
2023/10/17 00:15:17;;;;;;;8.93;4.63;;;;;;;5.39;100.00;102284.31;7393956;19;20487;-39
2023/10/17 00:17:46;;;;;;;9.10;3.93;;;;;;;5.41;100.00;102275.09;7368857;19;20443;-39
2023/10/17 00:20:24;;;;;;;8.13;3.90;;;;;;;5.38;100.00;102274.81;7390938;19;20396;-39
2023/10/17 00:22:53;;;;;;;10.80;4.57;;;;;;;5.43;100.00;102276.13;7369879;19;20871;-39
2023/10/17 00:25:25;;;;;;;8.60;3.80;;;;;;;5.42;100.00;102279.44;7392465;19;20474;-39
2023/10/17 00:27:55;;;;;;;8.33;4.27;;;;;;;5.47;100.00;102282.41;7371121;19;20398;-39
2023/10/17 00:30:30;;;;;;;9.50;3.90;;;;;;;5.50;100.00;102290.38;7390532;19;20745;-39
2023/10/17 00:33:00;;;;;;;9.53;3.77;;;;;;;5.47;100.00;102291.00;7368050;19;20419;-40
2023/10/17 00:35:36;;;;;;;10.23;4.30;;;;;;;5.48;100.00;102290.22;7391620;19;20428;-39
2023/10/17 00:38:07;;;;;;;6.83;4.20;;;;;;;5.52;100.00;102292.31;7370533;19;20395;-38
2023/10/17 00:40:45;;;;;;;10.10;4.60;;;;;;;5.52;100.00;102287.19;7393430;19;20420;-39
2023/10/17 00:43:15;;;;;;;11.70;4.00;;;;;;;5.57;100.00;102286.66;7367417;19;20420;-39
2023/10/17 00:45:48;;;;;;;10.17;4.10;;;;;;;5.58;100.00;102276.56;7391657;19;20445;-40
2023/10/17 00:48:22;;;;;;;9.13;3.70;;;;;;;5.58;100.00;102266.31;7368136;19;20526;-39
2023/10/17 00:50:57;;;;;;;11.57;3.83;;;;;;;5.60;100.00;102269.00;7395033;19;20410;-39
2023/10/17 00:53:27;;;;;;;14.60;4.07;;;;;;;5.60;100.00;102251.09;7376379;19;20969;-38
2023/10/17 00:55:59;;;;;;;7.77;3.20;;;;;;;5.65;100.00;102242.16;7397344;19;20433;-39
2023/10/17 00:58:29;;;;;;;9.53;3.27;;;;;;;5.62;100.00;102236.75;7375920;19;20786;-39
2023/10/17 01:01:09;;;;;;;10.80;3.50;;;;;;;5.63;100.00;102220.59;7397937;19;20488;-39
2023/10/17 01:03:42;;;;;;;6.37;3.07;;;;;;;5.57;100.00;102217.53;7375635;19;20430;-39
2023/10/17 01:06:23;;;;;;;4.40;2.17;;;;;;;5.53;100.00;102211.25;7397924;19;20439;-39
2023/10/17 01:08:53;;;;;;;6.83;3.13;;;;;;;5.52;100.00;102214.56;7377138;19;20501;-40
2023/10/17 01:11:26;;;;;;;9.13;3.00;;;;;;;5.58;100.00;102209.97;7396800;19;20411;-40
2023/10/17 01:13:58;;;;;;;8.57;2.90;;;;;;;5.64;100.00;102209.63;7375854;19;20415;-39
2023/10/17 01:16:36;;;;;;;7.47;2.67;;;;;;;5.66;100.00;102220.88;7396741;19;20443;-39
2023/10/17 01:19:10;;;;;;;6.87;4.00;;;;;;;5.60;100.00;102233.16;7373871;19;20501;-39
2023/10/17 01:21:41;;;;;;;6.93;3.40;;;;;;;5.59;100.00;102237.38;7397542;19;20836;-39
2023/10/17 01:24:13;;;;;;;14.87;4.20;;;;;;;5.58;100.00;102230.47;7371499;19;20440;-39
2023/10/17 01:26:44;;;;;;;8.77;4.07;;;;;;;5.65;100.00;102237.03;7397763;19;20443;-39
2023/10/17 01:29:15;;;;;;;6.53;3.53;;;;;;;5.71;100.00;102236.63;7374906;19;20465;-39
2023/10/17 01:31:44;;;;;;;9.00;3.93;;;;;;;5.66;100.00;102243.94;7397595;19;20409;-39
2023/10/17 01:34:14;;;;;;;8.50;4.13;;;;;;;5.63;100.00;102253.91;7374444;19;21094;-41
2023/10/17 01:36:44;;;;;;;6.30;4.03;;;;;;;5.58;100.00;102256.06;7397624;19;20443;-39
2023/10/17 01:39:16;;;;;;;8.40;3.57;;;;;;;5.64;100.00;102263.41;7374679;19;20833;-39
2023/10/17 01:41:48;;;;;;;8.40;3.97;;;;;;;5.67;100.00;102261.09;7396417;19;20825;-39
2023/10/17 01:44:18;;;;;;;8.27;3.70;;;;;;;5.63;100.00;102265.06;7374321;19;20423;-39
2023/10/17 01:46:47;;;;;;;11.53;3.87;;;;;;;5.67;100.00;102255.97;7397030;19;20466;-39
2023/10/17 01:49:19;;;;;;;9.20;3.60;;;;;;;5.65;100.00;102247.25;7375380;19;20820;-39
2023/10/17 01:51:50;;;;;;;8.37;4.57;;;;;;;5.70;100.00;102246.00;7396489;19;20777;-39
2023/10/17 01:54:23;;;;;;;8.90;2.97;;;;;;;5.74;100.00;102237.78;7373918;19;20419;-39
2023/10/17 01:56:53;;;;;;;8.63;3.57;;;;;;;5.76;100.00;102241.41;7396482;19;20448;-38
2023/10/17 01:59:27;;;;;;;8.60;3.60;;;;;;;5.71;100.00;102242.66;7374079;19;20418;-38
2023/10/17 02:01:59;;;;;;;11.77;3.07;;;;;;;5.71;100.00;102234.97;7395443;19;20407;-39
2023/10/17 02:04:30;;;;;;;5.23;2.40;;;;;;;5.74;100.00;102235.22;7373700;19;20976;-39
2023/10/17 02:07:00;;;;;;;9.63;3.03;;;;;;;5.73;100.00;102236.00;7397279;19;20459;-39
2023/10/17 02:12:16;;;;;;;5.40;3.27;;;;;;;5.79;100.00;102244.22;7394849;19;20849;-39
2023/10/17 02:14:46;;;;;;;10.40;3.33;;;;;;;5.81;100.00;102245.22;7375316;19;20435;-38
2023/10/17 02:17:18;;;;;;;9.13;3.17;;;;;;;5.84;100.00;102238.59;7395083;19;20439;-39
2023/10/17 02:19:47;;;;;;;9.13;3.30;;;;;;;5.78;100.00;102242.41;7373889;19;20434;-39
2023/10/17 02:22:17;;;;;;;8.63;3.70;;;;;;;5.75;100.00;102231.91;7396681;19;20766;-39
2023/10/17 02:24:52;;;;;;;7.90;3.27;;;;;;;5.76;100.00;102236.28;7368456;19;20456;-39
2023/10/17 02:27:27;;;;;;;9.10;3.77;;;;;;;5.79;100.00;102221.16;7388721;19;20427;-41
2023/10/17 02:29:58;;;;;;;5.17;2.90;;;;;;;5.79;100.00;102226.28;7368631;19;20526;-39
2023/10/17 02:32:28;;;;;;;6.20;2.67;;;;;;;5.74;100.00;102217.31;7389444;19;20400;-41
2023/10/17 02:34:58;;;;;;;4.30;2.70;;;;;;;5.73;100.00;102215.50;7375419;19;20435;-39
2023/10/17 02:37:32;;;;;;;7.60;2.90;;;;;;;5.78;100.00;102224.50;7394777;19;20792;-40
2023/10/17 02:40:09;;;;;;;8.33;3.30;;;;;;;5.73;100.00;102220.63;7375563;19;21026;-39
2023/10/17 02:42:39;;;;;;;9.00;3.57;;;;;;;5.75;100.00;102237.03;7372941;19;20850;-39
2023/10/17 02:45:10;;;;;;;10.10;3.20;;;;;;;5.76;100.00;102254.22;7397164;19;20475;-39
2023/10/17 02:47:43;;;;;;;5.27;2.60;;;;;;;5.85;100.00;102276.25;7372473;19;20483;-39
2023/10/17 02:50:41;;;;;;;5.03;3.10;;;;;;;5.74;100.00;102301.81;7394881;19;20773;-39
2023/10/17 02:53:14;;;;;;;5.03;2.63;;;;;;;5.77;100.00;102321.69;7372843;19;20419;-39
2023/10/17 02:55:46;;;;;;;7.97;3.00;;;;;;;5.72;100.00;102335.75;7394000;19;20991;-38
2023/10/17 02:58:16;;;;;;;9.93;3.73;;;;;;;5.77;100.00;102335.41;7372869;19;20983;-39
2023/10/17 03:00:47;;;;;;;6.93;3.30;;;;;;;5.75;100.00;102336.91;7394691;19;20427;-39
2023/10/17 03:03:19;;;;;;;8.47;3.53;;;;;;;5.76;100.00;102346.41;7370977;19;20427;-40
2023/10/17 03:05:53;;;;;;;6.30;2.73;;;;;;;5.80;100.00;102350.16;7395939;19;20443;-39
2023/10/17 03:08:24;;;;;;;9.47;3.33;;;;;;;5.86;100.00;102357.44;7371686;19;20415;-40
2023/10/17 03:11:00;;;;;;;6.77;3.40;;;;;;;5.84;100.00;102351.31;7394231;19;21224;-39
2023/10/17 03:13:39;;;;;;;5.30;2.83;;;;;;;5.77;100.00;102354.97;7369097;19;20436;-39
2023/10/17 03:16:17;;;;;;;6.00;3.10;;;;;;;5.81;100.00;102355.38;7394424;19;21996;-39
2023/10/17 03:18:50;;;;;;;7.27;3.10;;;;;;;5.83;100.00;102354.63;7370923;19;20422;-39
2023/10/17 03:21:30;;;;;;;6.00;3.17;;;;;;;5.81;100.00;102357.94;7393595;19;20435;-39
2023/10/17 03:24:09;;;;;;;6.00;2.97;;;;;;;5.82;100.00;102363.97;7371973;19;20444;-39
2023/10/17 03:26:54;;;;;;;6.40;3.10;;;;;;;5.82;100.00;102358.84;7394406;19;20527;-39
2023/10/17 03:29:26;;;;;;;9.33;3.17;;;;;;;5.78;100.00;102362.81;7371435;19;20996;-39
2023/10/17 03:31:58;;;;;;;9.90;3.60;;;;;;;5.71;100.00;102363.03;7394362;19;20403;-39
2023/10/17 03:34:35;;;;;;;6.30;3.50;;;;;;;5.72;100.00;102362.28;7371764;19;20456;-39
2023/10/17 03:39:51;;;;;;;5.77;3.00;;;;;;;5.71;100.00;102364.69;7371954;19;20435;-39
2023/10/17 03:42:43;;;;;;;6.80;2.70;;;;;;;5.74;100.00;102355.59;7392900;19;20410;-39
2023/10/17 03:45:23;;;;;;;8.27;2.97;;;;;;;5.76;100.00;102359.22;7371489;19;20555;-40
2023/10/17 03:47:57;;;;;;;5.80;2.90;;;;;;;5.74;100.00;102350.50;7371842;19;20770;-39
2023/10/17 03:50:43;;;;;;;5.27;3.30;;;;;;;5.70;100.00;102353.56;7392154;19;20403;-40
2023/10/17 03:53:24;;;;;;;8.93;3.40;;;;;;;5.67;100.00;102348.16;7370867;19;20423;-39
2023/10/17 03:55:54;;;;;;;10.90;3.60;;;;;;;5.59;100.00;102346.59;7392358;19;20439;-39
2023/10/17 03:58:31;;;;;;;6.50;2.87;;;;;;;5.57;100.00;102350.66;7370223;19;20416;-40
2023/10/17 04:01:06;;;;;;;5.40;2.77;;;;;;;5.58;100.00;102347.38;7393486;19;20837;-39
2023/10/17 04:03:36;;;;;;;5.53;2.53;;;;;;;5.55;100.00;102348.00;7369295;19;20430;-39
2023/10/17 04:06:17;;;;;;;8.27;3.30;;;;;;;5.54;100.00;102347.09;7393666;19;20442;-39
2023/10/17 04:08:56;;;;;;;4.90;3.10;;;;;;;5.65;100.00;102336.91;7370614;19;20430;-39
2023/10/17 04:11:36;;;;;;;10.77;3.47;;;;;;;5.70;100.00;102338.19;7391694;19;20407;-39
2023/10/17 04:14:10;;;;;;;12.20;3.17;;;;;;;5.71;100.00;102334.88;7371084;19;20423;-40
2023/10/17 04:16:43;;;;;;;9.87;3.70;;;;;;;5.67;100.00;102327.69;7392896;19;20466;-39
2023/10/17 04:19:20;;;;;;;8.20;3.43;;;;;;;5.69;100.00;102328.69;7370036;19;20429;-39
2023/10/17 04:22:01;;;;;;;10.30;3.60;;;;;;;5.73;100.00;102317.97;7394510;19;20407;-39
2023/10/17 04:24:49;;;;;;;7.47;3.53;;;;;;;5.70;100.00;102317.72;7370291;19;20914;-39
2023/10/17 04:27:23;;;;;;;5.57;3.00;;;;;;;5.66;100.00;102307.97;7391595;19;21026;-39
2023/10/17 04:29:59;;;;;;;6.20;3.20;;;;;;;5.68;100.00;102301.28;7371154;19;20427;-39
2023/10/17 04:32:33;;;;;;;8.00;3.30;;;;;;;5.70;100.00;102286.97;7381149;19;20410;-39
2023/10/17 04:35:07;;;;;;;7.03;3.03;;;;;;;5.72;100.00;102280.31;7393336;19;20435;-40
2023/10/17 04:37:37;;;;;;;11.13;3.17;;;;;;;5.71;100.00;102268.28;7370125;19;20407;-39
2023/10/17 04:40:37;;;;;;;5.67;3.30;;;;;;;5.75;100.00;102254.06;7391505;19;20482;-38
2023/10/17 04:43:43;;;;;;;7.03;2.90;;;;;;;5.79;100.00;102248.41;7368810;19;20419;-39
2023/10/17 04:46:08;;;;;;;5.60;3.03;;;;;;;5.80;100.00;102240.88;7393111;19;20438;-39
2023/10/17 04:48:40;;;;;;;5.67;3.33;;;;;;;5.79;100.00;102221.16;7370217;19;20495;-39
2023/10/17 04:51:19;;;;;;;8.67;3.80;;;;;;;5.79;100.00;102210.00;7391815;19;21948;-40
2023/10/17 04:53:55;;;;;;;9.70;3.80;;;;;;;5.80;100.00;102197.31;7368324;19;20450;-39
2023/10/17 04:56:23;;;;;;;11.93;3.83;;;;;;;5.80;100.00;102194.75;7389960;19;20439;-39
2023/10/17 04:58:56;;;;;;;7.97;4.10;;;;;;;5.80;100.00;102176.84;7370061;19;20427;-39
2023/10/17 05:04:31;;;;;;;7.80;3.93;;;;;;;5.75;100.00;102167.88;7369532;19;20431;-39
2023/10/17 05:07:14;;;;;;;13.57;4.90;;;;;;;5.77;100.00;102165.44;7392289;19;20507;-39
2023/10/17 06:18:26;;;;;;;12.60;4.40;;;;;;;6.16;100.00;102148.16;7368696;19;20430;-38
2023/10/17 06:21:17;;;;;;;13.97;6.90;;;;;;;6.26;100.00;102155.81;7396985;19;21002;-39
2023/10/17 06:32:16;;;;;;;9.57;5.17;;;;;;;6.23;100.00;102173.53;7388397;19;20487;-40
2023/10/17 06:34:45;;;;;;;6.87;4.40;;;;;;;6.23;100.00;102173.53;7365447;19;20445;-39
2023/10/17 06:37:19;;;;;;;16.67;8.43;;;;;;;6.75;100.00;102168.25;7392583;19;20455;-39
2023/10/17 06:39:57;;;;;;;32.10;13.97;;;;;;;7.00;100.00;102172.78;7366961;19;20430;-39
2023/10/17 06:42:29;;;;;;;10.63;4.97;;;;;;;6.70;100.00;102172.13;7385407;19;20436;-40
2023/10/17 06:45:07;;;;;;;30.83;12.87;;;;;;;6.85;100.00;102173.38;7362449;19;20435;-39
2023/10/17 06:47:41;;;;;;;40.37;18.30;;;;;;;7.60;100.00;102165.38;7366238;19;20451;-39
2023/10/17 06:51:15;;;;;;;29.20;13.70;;;;;;;7.87;100.00;102169.13;7385773;19;20412;-44
2023/10/17 06:53:11;;;;;;;8.90;4.87;;;;;;;7.49;100.00;102185.09;7386967;19;20419;-40
2023/10/17 06:55:47;;;;;;;8.60;4.60;;;;;;;7.11;100.00;102220.72;7388671;19;21038;-41
2023/10/17 06:58:21;;;;;;;7.07;3.80;;;;;;;6.87;100.00;102253.91;7366719;19;20436;-39
2023/10/17 07:00:53;;;;;;;10.17;5.30;;;;;;;6.76;100.00;102293.19;7382618;19;20403;-39
2023/10/17 07:03:34;;;;;;;10.40;4.50;;;;;;;6.84;100.00;102314.34;7387404;19;20407;-39
2023/10/17 07:06:11;;;;;;;11.50;4.70;;;;;;;6.88;100.00;102327.53;7390095;19;20725;-39
2023/10/17 07:08:46;;;;;;;10.00;5.10;;;;;;;7.00;100.00;102344.72;7388422;19;20436;-39
2023/10/17 07:11:26;;;;;;;14.87;6.73;;;;;;;7.07;100.00;102354.72;7365798;19;20422;-39
2023/10/17 07:14:22;;;;;;;9.67;4.37;;;;;;;7.06;100.00;102368.31;7387236;19;20407;-39
2023/10/17 07:16:57;;;;;;;10.70;4.50;;;;;;;7.11;100.00;102385.00;7363941;19;21091;-39
2023/10/17 07:22:11;;;;;;;11.33;4.17;;;;;;;7.25;100.00;102386.16;7364687;19;20415;-40
2023/10/17 07:24:42;;;;;;;10.07;4.33;;;;;;;7.26;100.00;102385.38;7388360;19;20939;-39
2023/10/17 07:27:18;;;;;;;9.07;4.47;;;;;;;7.32;100.00;102387.53;7363402;19;20443;-40
2023/10/17 07:29:58;;;;;;;14.53;4.13;;;;;;;7.21;100.00;102381.53;7386868;19;20514;-39
2023/10/17 07:32:32;;;;;;;13.50;3.97;;;;;;;7.23;100.00;102395.38;7365704;19;21452;-39
2023/10/17 07:35:04;;;;;;;7.60;3.90;;;;;;;7.22;100.00;102401.28;7365040;19;20494;-40
2023/10/17 07:37:48;;;;;;;12.17;4.53;;;;;;;7.15;100.00;102405.03;7386145;19;20473;-39
2023/10/17 07:40:31;;;;;;;10.77;3.87;;;;;;;7.34;100.00;102413.34;7366974;19;20538;-39
2023/10/17 07:43:05;;;;;;;10.50;4.57;;;;;;;7.35;100.00;102423.75;7385705;19;20432;-39
2023/10/17 07:45:39;;;;;;;8.70;4.53;;;;;;;7.24;100.00;102417.69;7365792;19;20498;-39
2023/10/17 07:48:25;;;;;;;10.17;3.73;;;;;;;7.33;100.00;102430.41;7386223;19;20428;-39
2023/10/17 07:50:57;;;;;;;11.67;4.20;;;;;;;7.36;100.00;102428.09;7365602;19;20500;-39
2023/10/17 07:53:32;;;;;;;7.90;4.70;;;;;;;7.60;100.00;102436.00;7384684;19;20408;-39
2023/10/17 07:56:13;;;;;;;6.50;4.00;;;;;;;7.65;100.00;102434.69;7364774;19;20454;-40
2023/10/17 07:58:45;;;;;;;10.43;3.33;;;;;;;7.54;100.00;102430.38;7393769;19;20403;-40
2023/10/17 08:01:17;;;;;;;11.33;4.67;;;;;;;7.51;100.00;102414.69;7361968;19;20476;-44
2023/10/17 08:03:57;;;;;;;8.83;2.60;;;;;;;7.54;100.00;102389.28;7394570;19;20418;-43
2023/10/17 08:06:31;;;;;;;6.10;2.70;;;;;;;7.54;100.00;102363.59;7368320;19;20427;-45
2023/10/17 08:09:03;;;;;;;6.80;2.70;;;;;;;7.59;100.00;102341.69;7396248;19;20478;-46
2023/10/17 08:11:37;;;;;;;5.90;2.73;;;;;;;7.66;100.00;102307.13;7371059;19;20582;-44
2023/10/17 08:14:09;;;;;;;8.50;2.87;;;;;;;7.66;100.00;102277.22;7396048;19;20428;-48
2023/10/17 08:16:43;;;;;;;8.23;3.17;;;;;;;7.67;100.00;102260.09;7370921;19;20433;-48
2023/10/17 08:19:16;;;;;;;8.47;3.07;;;;;;;7.72;100.00;102245.94;7397711;19;20946;-43
2023/10/17 08:21:59;;;;;;;6.73;3.13;;;;;;;7.77;100.00;102228.31;7369990;19;20475;-45
2023/10/17 08:24:33;;;;;;;7.40;2.77;;;;;;;7.82;100.00;102209.00;7395114;19;20923;-43
2023/10/17 08:29:49;;;;;;;9.20;3.73;;;;;;;8.09;100.00;102232.44;7396378;19;20926;-46
2023/10/17 08:35:18;;;;;;;4.83;2.03;;;;;;;8.13;100.00;102184.72;7373239;19;20408;-42
2023/10/17 08:37:45;;;;;;;8.63;2.53;;;;;;;8.11;100.00;102169.19;7393434;19;20429;-46
2023/10/17 08:42:59;;;;;;;5.57;2.80;;;;;;;8.28;100.00;102105.25;7391999;19;20431;-46
2023/10/17 08:45:37;;;;;;;6.00;2.67;;;;;;;8.26;100.00;102082.00;7370643;19;20419;-42
2023/10/17 08:48:09;;;;;;;7.80;3.67;;;;;;;8.32;100.00;102059.28;7393542;19;20395;-53
2023/10/17 08:50:40;;;;;;;10.20;2.60;;;;;;;8.36;100.00;102035.59;7370139;19;20396;-44
2023/10/17 08:53:13;;;;;;;7.93;2.37;;;;;;;8.45;100.00;102001.00;7391825;19;20407;-44
2023/10/17 08:55:44;;;;;;;10.20;3.47;;;;;;;8.45;100.00;101965.00;7370492;19;20399;-46
2023/10/17 08:58:14;;;;;;;6.40;2.47;;;;;;;8.50;100.00;101912.19;7396535;19;20403;-45
2023/10/17 09:03:35;;;;;;;3.93;2.00;;;;;;;8.65;100.00;101835.19;7383827;19;20433;-45
2023/10/17 09:08:55;;;;;;;5.73;2.60;;;;;;;8.53;100.00;101767.50;7384671;19;20407;-46
2023/10/17 09:11:33;;;;;;;9.60;2.80;;;;;;;8.58;100.00;101773.84;7363595;19;20462;-45
2023/10/17 09:14:15;;;;;;;10.37;2.70;;;;;;;8.64;100.00;101769.09;7394881;19;20478;-44
2023/10/17 09:16:54;;;;;;;6.27;2.37;;;;;;;8.62;100.00;101765.56;7371376;19;20423;-43
2023/10/17 09:19:25;;;;;;;3.63;1.80;;;;;;;8.71;100.00;101753.28;7393441;19;20419;-45
2023/10/17 09:21:59;;;;;;;15.90;6.37;;;;;;;8.79;100.00;101751.22;7368170;19;20472;-46
2023/10/17 09:24:32;;;;;;;7.03;2.33;;;;;;;8.85;100.00;101736.16;7393060;19;20415;-42
2023/10/17 09:27:06;;;;;;;5.17;2.43;;;;;;;8.88;100.00;101723.47;7370447;19;20456;-44
2023/10/17 09:29:47;;;;;;;14.30;3.90;;;;;;;8.73;100.00;101718.22;7394172;19;20410;-45
2023/10/17 09:32:34;;;;;;;7.73;2.97;;;;;;;8.71;100.00;101704.38;7367252;19;20997;-42
2023/10/17 09:35:10;;;;;;;18.67;6.17;;;;;;;8.82;100.00;101709.34;7367834;19;20766;-44
2023/10/17 09:37:42;;;;;;;10.00;3.20;;;;;;;8.95;100.00;101704.19;7389468;19;20420;-48
2023/10/17 09:40:18;;;;;;;5.37;2.33;;;;;;;9.07;100.00;101722.06;7371680;19;20407;-46
2023/10/17 09:42:49;;;;;;;42.43;18.50;;;;;;;9.05;100.00;101719.44;7391176;19;20866;-43
2023/10/17 09:45:18;;;;;;;9.93;3.17;;;;;;;9.09;100.00;101709.31;7373253;19;20431;-45
2023/10/17 09:48:07;;;;;;;8.67;3.20;;;;;;;9.10;100.00;101705.94;7391937;19;20479;-45
2023/10/17 09:50:39;;;;;;;9.50;3.07;;;;;;;9.05;100.00;101709.13;7369205;19;20419;-43
2023/10/17 09:53:16;;;;;;;6.40;2.87;;;;;;;9.20;100.00;101713.47;7393095;19;20490;-43
2023/10/17 09:55:50;;;;;;;9.97;2.50;;;;;;;9.17;100.00;101709.00;7372121;19;20773;-44
2023/10/17 09:58:24;;;;;;;8.73;2.20;;;;;;;9.06;100.00;101704.84;7391721;19;20416;-42
2023/10/17 10:00:55;;;;;;;4.30;1.53;;;;;;;9.04;100.00;101673.84;7368449;19;20430;-45
2023/10/17 10:03:28;;;;;;;5.90;1.43;;;;;;;9.04;100.00;101666.13;7391351;19;20430;-43
2023/10/17 10:06:21;;;;;;;3.60;1.60;;;;;;;9.18;100.00;101674.72;7369060;19;20519;-42
2023/10/17 10:08:51;;;;;;;9.67;1.60;;;;;;;9.27;100.00;101682.13;7393653;19;20404;-42
2023/10/17 10:11:21;;;;;;;4.60;1.43;;;;;;;9.37;100.00;101686.16;7370469;19;20461;-46
2023/10/17 10:14:08;;;;;;;7.43;3.10;;;;;;;9.43;100.00;101711.41;7391616;19;20428;-44
2023/10/17 10:16:53;;;;;;;5.10;1.30;;;;;;;9.48;100.00;101710.00;7369538;19;20482;-45
2023/10/17 10:20:01;;;;;;;14.80;5.67;;;;;;;9.57;100.00;101715.75;7391706;19;20395;-47
2023/10/17 10:22:53;;;;;;;9.70;3.33;;;;;;;9.65;100.00;101713.59;7367101;19;20474;-45
2023/10/17 10:25:23;;;;;;;9.87;1.80;;;;;;;9.64;100.00;101701.53;7370547;19;20452;-44
2023/10/17 10:28:22;;;;;;;13.23;5.07;;;;;;;9.40;100.00;101700.94;7389873;19;20455;-44
2023/10/17 10:30:52;;;;;;;6.53;1.97;;;;;;;9.46;100.00;101696.16;7365515;19;20432;-43
2023/10/17 10:33:22;;;;;;;7.00;2.90;;;;;;;9.63;100.00;101698.88;7389965;19;20404;-48
2023/10/17 10:35:54;;;;;;;6.83;2.00;;;;;;;9.71;100.00;101695.94;7369321;19;20431;-47
2023/10/17 10:38:27;;;;;;;11.73;2.10;;;;;;;9.64;100.00;101686.06;7389581;19;20412;-50
2023/10/17 10:40:56;;;;;;;6.07;1.90;;;;;;;9.71;100.00;101684.75;7368175;19;20419;-49
2023/10/17 10:43:26;;;;;;;4.83;1.40;;;;;;;9.85;100.00;101699.34;7390730;19;20492;-43
2023/10/17 10:46:00;;;;;;;6.77;1.60;;;;;;;9.96;100.00;101694.81;7367483;19;20423;-45
2023/10/17 10:48:32;;;;;;;6.10;2.57;;;;;;;10.03;100.00;101701.25;7390015;19;20403;-43
2023/10/17 10:51:05;;;;;;;10.83;4.20;;;;;;;9.77;100.00;101703.16;7368273;19;20851;-49
2023/10/17 10:53:36;;;;;;;3.90;1.20;;;;;;;9.78;100.00;101697.22;7387759;19;20408;-41
2023/10/17 10:56:09;;;;;;;5.60;2.30;;;;;;;9.78;100.00;101694.63;7366724;19;20431;-45
2023/10/17 10:58:47;;;;;;;3.70;1.50;;;;;;;9.96;100.00;101707.72;7390471;19;20403;-43
2023/10/17 11:01:18;;;;;;;5.33;1.37;;;;;;;10.09;100.00;101698.13;7367571;19;20452;-46
2023/10/17 11:03:48;;;;;;;3.50;1.03;;;;;;;10.33;100.00;101690.97;7387215;19;20932;-44
2023/10/17 11:06:23;;;;;;;4.47;1.17;;;;;;;10.48;100.00;101700.41;7366057;19;20407;-49
2023/10/17 11:08:54;;;;;;;8.93;1.40;;;;;;;10.49;100.00;101697.00;7388446;19;20403;-43
2023/10/17 11:11:25;;;;;;;12.30;1.17;;;;;;;10.49;100.00;101707.34;7367004;19;20451;-51
2023/10/17 11:13:56;;;;;;;2.93;1.03;;;;;;;10.38;100.00;101705.00;7394062;19;20406;-43
2023/10/17 11:16:28;;;;;;;5.43;1.50;;;;;;;10.45;100.00;101715.72;7372374;19;20408;-45
2023/10/17 11:18:59;;;;;;;7.33;2.07;;;;;;;10.47;100.00;101719.28;7394423;19;20396;-45
2023/10/17 11:21:31;;;;;;;4.40;1.30;;;;;;;10.33;100.00;101724.50;7372031;19;20435;-42
2023/10/17 11:24:04;;;;;;;6.10;2.00;;;;;;;10.50;100.00;101725.50;7395919;19;20424;-43
2023/10/17 11:26:37;;;;;;;4.23;0.80;;;;;;;10.59;100.00;101732.88;7368959;19;20408;-42
2023/10/17 11:29:07;;;;;;;3.90;1.13;;;;;;;10.76;100.00;101743.25;7386290;19;20428;-42
2023/10/17 11:31:40;;;;;;;3.80;0.90;;;;;;;10.61;100.00;101751.91;7364511;19;20414;-47
2023/10/17 11:34:12;;;;;;;4.57;1.00;;;;;;;10.50;100.00;101768.44;7386257;19;20490;-47
2023/10/17 11:36:50;;;;;;;4.07;1.23;;;;;;;10.75;100.00;101772.44;7364617;19;20415;-42
2023/10/17 11:39:20;;;;;;;5.40;1.10;;;;;;;10.53;100.00;101787.59;7385784;19;20496;-43
2023/10/17 11:41:53;;;;;;;3.60;0.90;;;;;;;10.66;100.00;101798.63;7365217;19;20431;-41
2023/10/17 11:44:23;;;;;;;5.73;1.20;;;;;;;10.92;100.00;101802.72;7385690;19;20399;-46
2023/10/17 11:47:00;;;;;;;3.20;1.00;;;;;;;11.00;100.00;101802.25;7364849;19;20423;-47
2023/10/17 11:49:33;;;;;;;2.90;1.13;;;;;;;10.82;100.00;101804.69;7388093;19;20403;-42
2023/10/17 11:52:09;;;;;;;3.53;0.90;;;;;;;10.74;100.00;101809.41;7363209;19;20964;-42
2023/10/17 11:55:00;;;;;;;3.47;1.40;;;;;;;10.83;100.00;101812.53;7388089;19;20423;-46
2023/10/17 11:57:29;;;;;;;5.27;1.07;;;;;;;11.08;100.00;101812.22;7361364;19;20473;-42
2023/10/17 12:00:06;;;;;;;7.70;2.10;;;;;;;11.17;100.00;101808.38;7385866;19;20403;-44
2023/10/17 12:02:41;;;;;;;4.43;1.20;;;;;;;11.10;100.00;101807.16;7362827;19;20455;-43
2023/10/17 12:05:18;;;;;;;5.20;1.40;;;;;;;11.31;100.00;101816.91;7386910;19;20783;-42
2023/10/17 12:07:53;;;;;;;5.73;1.33;;;;;;;11.54;100.00;101827.63;7363896;19;20463;-43
2023/10/17 12:10:25;;;;;;;6.97;1.70;;;;;;;11.52;100.00;101819.78;7385878;19;20408;-47
2023/10/17 12:12:58;;;;;;;15.00;6.53;;;;;;;11.60;100.00;101825.38;7362645;19;20510;-42
2023/10/17 12:15:29;;;;;;;6.57;2.30;;;;;;;11.53;100.00;101808.63;7387283;19;20421;-45
2023/10/17 12:17:59;;;;;;;7.53;2.90;;;;;;;11.70;100.00;101811.25;7363363;19;20431;-42
2023/10/17 12:20:29;;;;;;;4.20;1.27;;;;;;;11.95;100.00;101813.44;7387017;19;20502;-45
2023/10/17 12:23:01;;;;;;;4.20;1.20;;;;;;;11.93;100.00;101820.25;7362119;19;20429;-43
2023/10/17 12:25:32;;;;;;;7.77;2.00;;;;;;;11.48;100.00;101802.31;7386477;19;20411;-44
2023/10/17 12:28:02;;;;;;;19.20;5.50;;;;;;;11.95;100.00;101839.28;7363310;19;20419;-43
2023/10/17 12:30:35;;;;;;;12.90;6.30;;;;;;;12.52;100.00;101850.88;7386945;19;20432;-43
2023/10/17 12:33:08;;;;;;;12.23;5.07;;;;;;;12.28;100.00;101816.06;7363181;19;20407;-41
2023/10/17 12:35:38;;;;;;;8.70;3.90;;;;;;;12.68;100.00;101809.41;7385366;19;20498;-43
2023/10/17 12:38:24;;;;;;;12.73;4.70;;;;;;;12.41;100.00;101791.69;7362861;19;20420;-42
2023/10/17 12:40:54;;;;;;;17.77;9.43;;;;;;;12.81;100.00;101810.91;7383835;19;21006;-43
2023/10/17 12:43:24;;;;;;;11.17;3.23;;;;;;;12.80;100.00;101790.13;7362569;19;20511;-44
2023/10/17 12:45:54;;;;;;;10.13;1.37;;;;;;;12.72;100.00;101789.72;7387507;19;20774;-43
2023/10/17 12:48:24;;;;;;;6.70;3.00;;;;;;;12.51;100.00;101774.06;7370153;19;20415;-47
2023/10/17 12:50:54;;;;;;;3.50;1.13;;;;;;;12.14;100.00;101760.13;7390657;19;20407;-43
2023/10/17 12:53:26;;;;;;;7.50;3.20;;;;;;;12.43;100.00;101773.66;7369911;19;20863;-42
2023/10/17 12:55:56;;;;;;;12.20;5.50;;;;;;;12.34;100.00;101799.06;7394361;19;20947;-43
2023/10/17 12:58:29;;;;;;;4.93;2.10;;;;;;;12.23;100.00;101812.34;7361535;19;21616;-43
2023/10/17 13:00:58;;;;;;;9.43;3.70;;;;;;;12.33;100.00;101811.13;7392313;19;20415;-46
2023/10/17 13:03:28;;;;;;;8.47;3.67;;;;;;;12.67;100.00;101818.00;7369511;19;20834;-43
2023/10/17 13:05:58;;;;;;;7.07;3.13;;;;;;;12.74;100.00;101819.19;7394684;19;20410;-44
2023/10/17 13:08:30;;;;;;;6.70;3.10;;;;;;;12.56;100.00;101833.00;7370491;19;20494;-42
2023/10/17 13:11:02;;;;;;;7.87;3.20;;;;;;;12.67;100.00;101827.47;7391887;19;20419;-48
2023/10/17 13:13:33;;;;;;;5.53;2.47;;;;;;;12.40;100.00;101828.72;7369305;19;20789;-45
2023/10/17 13:16:05;;;;;;;6.83;2.40;;;;;;;12.83;100.00;101798.94;7391565;19;20412;-42
2023/10/17 13:18:40;;;;;;;5.27;2.00;;;;;;;12.87;100.00;101783.56;7367730;19;20442;-40
2023/10/17 13:21:15;;;;;;;4.97;1.60;;;;;;;12.37;100.00;101804.41;7393365;19;20441;-40
2023/10/17 13:23:48;;;;;;;5.80;2.10;;;;;;;13.19;100.00;101798.03;7369003;19;20459;-43
2023/10/17 13:26:19;;;;;;;4.23;2.00;;;;;;;14.10;100.00;101787.47;7370515;19;21010;-41
2023/10/17 13:28:48;;;;;;;5.50;2.47;;;;;;;14.17;100.00;101721.16;7387802;19;20415;-40
2023/10/17 13:31:18;;;;;;;7.70;1.63;;;;;;;14.62;100.00;101704.81;7370291;19;20443;-41
2023/10/17 13:33:49;;;;;;;4.13;1.50;;;;;;;14.77;100.00;101685.50;7394346;19;20427;-41
2023/10/17 13:36:20;;;;;;;9.53;3.20;;;;;;;14.71;100.00;101681.81;7375188;19;20407;-42
2023/10/17 13:38:52;;;;;;;7.50;3.50;;;;;;;14.52;100.00;101720.84;7396863;19;20411;-41